Terminal Aerodrome Forecast
Issued by NWS Spokane, WA

Current Version | Previous Version | Text Only | Print | Product List | Glossary On
Versions: 1 2 3 4 5 6 7 8 9 10 11 12 13 14 15 16 17 18 19 20 21 22 23 24
000
FTUS46 KOTX 031732
TAFGEG
TAF
KGEG 031732Z 0318/0418 13005KT P6SM BKN150
      TEMPO 0318/0320 6SM FU
     FM032000 23012G18KT P6SM BKN150
     FM040400 21010KT P6SM BKN120 OVC200=

USA.gov is the U.S. government's official web portal to all federal, state and local government web resources and services.